Time;durP1;ratioP1;P1;durP2;ratioP2;P2;SDS_P1;SDS_P2;PMS_P1;PMS_P2;Temp;Humidity;BMP_temperature;BMP_pressure;BME280_temperature;BME280_humidity;BME280_pressure;Samples;Min_cycle;Max_cycle;Signal;HPM_P1;HPM_P2
2023/01/27 00:01:09;;;;;;;1.80;1.70;;;3.50;99.90;;;;;;4999770;28;20222;-80
2023/01/27 00:03:35;;;;;;;3.33;1.60;;;3.50;99.90;;;;;;5003039;28;20236;-81
2023/01/27 00:06:05;;;;;;;2.83;1.60;;;3.50;99.90;;;;;;4999557;28;20300;-80
2023/01/27 00:08:31;;;;;;;2.10;1.70;;;3.40;99.90;;;;;;4999247;28;20240;-80
2023/01/27 00:13:39;;;;;;;2.30;1.90;;;3.50;99.90;;;;;;5001042;28;20212;-80
2023/01/27 00:16:06;;;;;;;4.23;1.60;;;3.50;99.90;;;;;;5001729;28;20970;-80
2023/01/27 00:18:34;;;;;;;2.13;1.93;;;3.50;99.90;;;;;;5000106;28;20234;-79
2023/01/27 00:26:31;;;;;;;2.50;1.63;;;3.50;99.90;;;;;;4998177;28;20313;-80
2023/01/27 00:28:58;;;;;;;3.00;2.00;;;3.40;99.90;;;;;;4997399;28;20764;-80
2023/01/27 00:34:09;;;;;;;2.47;1.60;;;3.50;99.90;;;;;;4999807;28;20686;-80
2023/01/27 00:36:39;;;;;;;2.60;1.73;;;3.50;99.90;;;;;;4994125;28;20226;-80
2023/01/27 00:39:07;;;;;;;2.97;2.07;;;3.50;99.90;;;;;;4997518;28;20234;-80
2023/01/27 00:41:34;;;;;;;2.33;1.80;;;3.50;99.90;;;;;;5002956;28;20256;-79
2023/01/27 00:44:01;;;;;;;4.17;1.87;;;3.40;99.90;;;;;;5002573;28;20448;-80
2023/01/27 00:46:28;;;;;;;2.90;1.90;;;3.50;99.90;;;;;;4999856;28;20221;-80
2023/01/27 00:48:55;;;;;;;2.20;1.73;;;3.50;99.90;;;;;;5001659;28;20392;-80
2023/01/27 00:51:22;;;;;;;2.73;2.03;;;3.50;99.90;;;;;;5003416;28;20232;-79
2023/01/27 00:53:51;;;;;;;3.43;1.90;;;3.50;99.90;;;;;;5002381;28;20222;-80
2023/01/27 00:56:19;;;;;;;4.93;2.27;;;3.50;99.90;;;;;;4998148;28;20235;-80
2023/01/27 00:58:46;;;;;;;2.93;1.90;;;3.60;99.90;;;;;;4993652;28;20261;-79
2023/01/27 01:01:15;;;;;;;2.57;1.97;;;3.60;99.90;;;;;;4999112;28;20998;-80
2023/01/27 01:03:42;;;;;;;4.57;2.10;;;3.50;99.90;;;;;;5000305;28;20254;-80
2023/01/27 01:06:13;;;;;;;3.23;2.40;;;3.60;99.90;;;;;;4999053;28;20218;-79
2023/01/27 01:08:40;;;;;;;3.40;2.30;;;3.60;99.90;;;;;;5001490;28;20647;-82
2023/01/27 01:11:12;;;;;;;3.30;2.10;;;3.60;99.90;;;;;;4998980;28;20222;-80
2023/01/27 01:13:39;;;;;;;2.33;2.13;;;3.60;99.90;;;;;;4993627;28;20229;-81
2023/01/27 01:16:07;;;;;;;3.33;2.30;;;3.60;99.90;;;;;;4998739;28;20218;-81
2023/01/27 01:18:36;;;;;;;3.07;2.50;;;3.60;99.90;;;;;;5000088;28;20221;-81
2023/01/27 01:21:06;;;;;;;2.97;2.57;;;3.60;99.90;;;;;;5004984;28;20276;-80
2023/01/27 01:23:33;;;;;;;3.13;2.30;;;3.60;99.90;;;;;;4999270;28;20959;-80
2023/01/27 01:26:00;;;;;;;4.90;2.27;;;3.60;99.90;;;;;;5003099;28;20304;-80
2023/01/27 01:28:29;;;;;;;2.23;2.03;;;3.60;99.90;;;;;;4996899;28;20226;-80
2023/01/27 01:30:56;;;;;;;2.70;2.10;;;3.60;99.90;;;;;;4997695;28;20222;-80
2023/01/27 01:33:24;;;;;;;2.40;2.20;;;3.60;99.90;;;;;;4996874;28;20753;-80
2023/01/27 01:35:50;;;;;;;3.07;2.77;;;3.60;99.90;;;;;;4999314;28;20786;-80
2023/01/27 01:38:17;;;;;;;3.53;2.70;;;3.60;99.90;;;;;;4996656;28;20619;-79
2023/01/27 01:40:45;;;;;;;2.70;2.20;;;3.60;99.90;;;;;;5002448;28;20312;-79
2023/01/27 01:43:14;;;;;;;3.10;2.30;;;3.60;99.90;;;;;;4996001;28;20238;-79
2023/01/27 01:45:51;;;;;;;4.47;2.67;;;3.60;99.90;;;;;;4998749;28;20284;-79
2023/01/27 01:48:24;;;;;;;4.97;2.67;;;3.50;99.90;;;;;;4988573;28;20227;-80
2023/01/27 01:50:57;;;;;;;3.43;2.93;;;3.50;99.90;;;;;;4992110;28;20299;-78
2023/01/27 01:53:30;;;;;;;5.37;2.70;;;3.50;99.90;;;;;;4999932;28;20226;-79
2023/01/27 01:56:05;;;;;;;3.50;2.53;;;3.60;99.90;;;;;;4999160;28;20225;-79
2023/01/27 01:58:35;;;;;;;3.43;2.70;;;3.50;99.90;;;;;;4992474;28;20305;-79
2023/01/27 02:01:06;;;;;;;3.33;3.00;;;3.40;99.90;;;;;;4994920;28;20287;-79
2023/01/27 02:03:35;;;;;;;4.50;3.10;;;3.50;99.90;;;;;;4990648;28;20326;-79
2023/01/27 02:06:02;;;;;;;3.70;3.03;;;3.50;99.90;;;;;;5001252;28;20252;-79
2023/01/27 02:08:33;;;;;;;3.20;2.90;;;3.40;99.90;;;;;;4997147;28;20908;-79
2023/01/27 02:11:00;;;;;;;4.27;3.00;;;3.40;99.90;;;;;;5002220;28;20222;-79
2023/01/27 02:13:27;;;;;;;5.10;2.97;;;3.40;99.90;;;;;;5002912;28;20300;-79
2023/01/27 02:15:55;;;;;;;3.27;2.73;;;3.40;99.90;;;;;;5003475;28;20268;-78
2023/01/27 02:18:23;;;;;;;3.53;3.00;;;3.40;99.90;;;;;;4998592;28;20225;-79
2023/01/27 02:20:53;;;;;;;3.37;2.97;;;3.50;99.90;;;;;;5002948;28;20240;-79
2023/01/27 02:23:28;;;;;;;3.57;2.80;;;3.40;99.90;;;;;;5004629;28;20308;-79
2023/01/27 02:25:59;;;;;;;2.73;2.33;;;3.40;99.90;;;;;;4999700;28;20826;-78
2023/01/27 02:28:29;;;;;;;2.93;2.70;;;3.30;99.90;;;;;;5004751;28;20233;-79
2023/01/27 02:30:57;;;;;;;4.80;2.60;;;3.40;99.90;;;;;;5001619;28;20897;-79
2023/01/27 02:33:24;;;;;;;2.90;2.60;;;3.30;99.90;;;;;;5002367;28;20308;-79
2023/01/27 02:36:02;;;;;;;3.80;2.30;;;3.30;99.90;;;;;;4997606;28;20256;-79
2023/01/27 02:38:35;;;;;;;3.00;2.70;;;3.30;99.90;;;;;;5000892;28;20229;-79
2023/01/27 02:41:10;;;;;;;3.50;2.73;;;3.30;99.90;;;;;;4997162;28;20611;-79
2023/01/27 02:43:40;;;;;;;3.57;2.30;;;3.30;99.90;;;;;;5002992;28;20295;-79
2023/01/27 02:46:07;;;;;;;2.73;2.30;;;3.30;99.90;;;;;;4988166;28;20229;-78
2023/01/27 02:48:37;;;;;;;2.50;2.30;;;3.30;99.90;;;;;;5001912;28;20251;-79
2023/01/27 02:51:04;;;;;;;3.17;2.30;;;3.30;99.90;;;;;;5002781;28;20252;-78
2023/01/27 02:53:35;;;;;;;2.40;1.90;;;3.30;99.90;;;;;;4993532;28;20631;-79
2023/01/27 02:56:03;;;;;;;2.20;2.00;;;3.30;99.90;;;;;;4998047;28;20222;-79
2023/01/27 02:58:30;;;;;;;3.33;1.93;;;3.20;99.90;;;;;;5002597;28;20228;-80
2023/01/27 03:01:05;;;;;;;2.10;1.90;;;3.20;99.90;;;;;;4999196;28;20221;-79
2023/01/27 03:03:45;;;;;;;1.73;1.63;;;3.30;99.90;;;;;;5001969;28;20711;-78
2023/01/27 03:06:12;;;;;;;1.77;1.50;;;3.20;99.90;;;;;;4996192;28;20258;-79
2023/01/27 03:08:39;;;;;;;1.70;1.30;;;3.20;99.90;;;;;;4999615;28;20229;-79
2023/01/27 03:11:08;;;;;;;1.83;1.20;;;3.20;99.90;;;;;;5001712;28;20320;-79
2023/01/27 03:13:36;;;;;;;2.33;1.07;;;3.10;99.90;;;;;;5006879;28;20214;-80
2023/01/27 03:18:48;;;;;;;1.50;0.90;;;3.10;99.90;;;;;;5000850;28;20225;-80
2023/01/27 03:21:18;;;;;;;1.00;0.90;;;3.10;99.90;;;;;;4995877;28;20226;-80
2023/01/27 03:23:47;;;;;;;1.93;0.97;;;3.10;99.90;;;;;;4996275;28;20989;-80
2023/01/27 03:26:21;;;;;;;1.60;0.90;;;3.10;99.90;;;;;;4994810;28;20230;-79
2023/01/27 03:29:53;;;;;;;1.60;0.80;;;3.00;99.90;;;;;;5001926;28;20389;-80
2023/01/27 03:31:42;;;;;;;1.03;0.90;;;3.10;99.90;;;;;;5004217;28;20225;-79
2023/01/27 03:34:10;;;;;;;1.37;1.10;;;3.00;99.90;;;;;;5004189;28;20244;-79
2023/01/27 03:47:42;;;;;;;1.43;1.30;;;3.00;99.90;;;;;;4997260;28;20798;-79
2023/01/27 03:50:12;;;;;;;1.70;1.60;;;3.00;99.90;;;;;;5002174;28;20225;-80
2023/01/27 03:53:01;;;;;;;1.83;1.67;;;3.00;99.90;;;;;;5003570;28;21005;-80
2023/01/27 03:55:28;;;;;;;2.10;1.90;;;3.00;99.90;;;;;;4998845;28;20223;-80
2023/01/27 03:57:56;;;;;;;1.87;1.47;;;3.00;99.90;;;;;;4994062;28;20315;-79
2023/01/27 04:00:24;;;;;;;1.80;1.40;;;3.00;99.90;;;;;;4988632;28;20225;-79
2023/01/27 04:08:19;;;;;;;1.80;1.70;;;2.90;99.90;;;;;;5002874;28;20233;-79
2023/01/27 04:11:53;;;;;;;1.87;1.70;;;2.90;99.90;;;;;;5002111;28;20263;-79
2023/01/27 04:13:33;;;;;;;2.13;1.93;;;2.90;99.90;;;;;;4997633;28;20240;-80
2023/01/27 04:15:59;;;;;;;2.73;1.80;;;2.90;99.90;;;;;;4999041;28;20435;-79
2023/01/27 04:18:29;;;;;;;2.27;1.70;;;2.80;99.90;;;;;;4993329;28;20755;-80
2023/01/27 04:20:56;;;;;;;1.90;1.70;;;2.80;99.90;;;;;;4991395;28;20225;-79
2023/01/27 04:23:22;;;;;;;2.20;1.67;;;2.80;99.90;;;;;;4999688;28;20961;-80
2023/01/27 04:25:52;;;;;;;2.00;1.60;;;2.80;99.90;;;;;;4999616;28;20903;-80
2023/01/27 04:28:19;;;;;;;1.30;1.20;;;2.80;99.90;;;;;;4996850;28;20233;-81
2023/01/27 04:30:55;;;;;;;1.87;1.47;;;2.80;99.90;;;;;;4999051;28;20229;-81
2023/01/27 04:33:22;;;;;;;1.67;1.47;;;2.90;99.90;;;;;;5004341;28;20222;-80
2023/01/27 04:35:50;;;;;;;1.97;1.40;;;2.80;99.90;;;;;;4993928;28;20289;-80
2023/01/27 04:38:17;;;;;;;2.67;1.67;;;2.80;99.90;;;;;;5001511;28;20231;-80
2023/01/27 04:40:43;;;;;;;2.60;1.83;;;2.80;99.90;;;;;;5002795;28;20296;-80
2023/01/27 04:43:10;;;;;;;2.13;1.80;;;2.80;99.90;;;;;;4999910;28;20225;-80
2023/01/27 04:45:37;;;;;;;18.33;9.47;;;2.80;99.90;;;;;;4997564;28;20641;-80
2023/01/27 04:48:06;;;;;;;4.17;2.53;;;2.80;99.90;;;;;;4999950;28;20234;-80
2023/01/27 04:50:36;;;;;;;11.00;4.90;;;2.80;99.90;;;;;;5001166;28;20987;-80
2023/01/27 04:53:03;;;;;;;22.00;12.80;;;2.70;99.90;;;;;;5002361;28;20339;-80
2023/01/27 04:55:30;;;;;;;4.20;2.70;;;2.80;99.90;;;;;;5000564;28;20288;-80
2023/01/27 04:57:56;;;;;;;3.57;1.60;;;2.70;99.90;;;;;;5005893;28;20234;-79
2023/01/27 05:00:25;;;;;;;3.23;1.50;;;2.80;99.90;;;;;;4998500;28;20239;-80
2023/01/27 05:02:52;;;;;;;3.20;2.53;;;2.70;99.90;;;;;;5003933;28;20226;-80
2023/01/27 05:05:20;;;;;;;11.40;2.57;;;2.70;99.90;;;;;;5014759;28;20288;-80
2023/01/27 05:07:47;;;;;;;1.47;1.10;;;2.70;99.90;;;;;;5000865;28;20325;-81
2023/01/27 05:10:14;;;;;;;2.57;1.30;;;2.70;99.90;;;;;;5004982;28;20300;-80
2023/01/27 05:12:44;;;;;;;4.23;1.33;;;2.70;99.90;;;;;;5002069;28;20235;-80
2023/01/27 05:15:10;;;;;;;2.20;1.33;;;2.60;99.90;;;;;;5019976;28;20648;-80
2023/01/27 05:17:37;;;;;;;2.00;0.93;;;2.60;99.90;;;;;;5006557;28;20225;-79
2023/01/27 05:20:04;;;;;;;1.73;1.00;;;2.70;99.90;;;;;;4999320;28;20214;-80
2023/01/27 05:22:35;;;;;;;1.47;1.00;;;2.60;99.90;;;;;;5004728;28;20290;-80
2023/01/27 05:25:01;;;;;;;2.33;1.60;;;2.60;99.90;;;;;;5003906;28;20222;-80
2023/01/27 05:27:28;;;;;;;4.43;1.30;;;2.60;99.90;;;;;;5004639;28;20226;-81
2023/01/27 05:29:56;;;;;;;2.60;1.70;;;2.50;99.90;;;;;;5005989;28;20226;-81
2023/01/27 05:32:22;;;;;;;2.80;1.23;;;2.50;99.90;;;;;;5001282;28;20233;-80
2023/01/27 05:34:49;;;;;;;2.47;1.33;;;2.60;99.90;;;;;;5004600;28;20284;-79
2023/01/27 05:37:16;;;;;;;2.93;1.30;;;2.50;99.90;;;;;;5002621;28;20242;-80
2023/01/27 05:39:45;;;;;;;3.30;1.03;;;2.50;99.90;;;;;;5018059;28;20336;-80
2023/01/27 05:42:13;;;;;;;12.60;2.13;;;2.50;99.90;;;;;;5015368;28;20252;-79
2023/01/27 05:44:40;;;;;;;60.30;5.67;;;2.50;99.90;;;;;;5002279;28;20233;-79
2023/01/27 05:47:06;;;;;;;30.50;5.37;;;2.50;99.90;;;;;;4998675;28;20713;-79
2023/01/27 05:49:33;;;;;;;11.90;1.67;;;2.40;99.90;;;;;;5001014;28;20338;-79
2023/01/27 05:52:00;;;;;;;43.30;3.73;;;2.40;99.90;;;;;;5004107;28;20307;-79
2023/01/27 05:54:26;;;;;;;2.57;1.03;;;2.30;99.90;;;;;;5003748;28;20237;-81
2023/01/27 05:56:55;;;;;;;6.20;1.47;;;2.40;99.90;;;;;;4996865;28;20225;-81
2023/01/27 05:59:21;;;;;;;1.87;1.00;;;2.20;99.90;;;;;;5003261;28;20238;-81
2023/01/27 06:01:48;;;;;;;2.97;1.13;;;2.20;99.90;;;;;;5001984;28;20244;-81
2023/01/27 06:04:15;;;;;;;22.57;2.40;;;2.10;99.90;;;;;;4999552;28;20625;-81
2023/01/27 06:06:42;;;;;;;5.00;1.60;;;2.00;99.90;;;;;;4998162;28;20296;-81
2023/01/27 06:09:10;;;;;;;20.33;2.57;;;2.00;99.90;;;;;;4991061;28;20267;-82
2023/01/27 06:11:37;;;;;;;5.73;1.70;;;2.00;99.90;;;;;;5001326;28;20816;-82
2023/01/27 06:14:05;;;;;;;3.33;1.43;;;2.00;99.90;;;;;;4988668;28;20470;-82
2023/01/27 06:16:32;;;;;;;1.77;1.40;;;2.00;99.90;;;;;;5000511;28;20749;-82
2023/01/27 06:18:59;;;;;;;1.57;1.27;;;2.00;99.90;;;;;;4987303;28;20312;-82
2023/01/27 06:21:25;;;;;;;4.23;1.50;;;2.00;99.90;;;;;;5008396;28;20231;-82
2023/01/27 06:23:52;;;;;;;6.63;1.80;;;2.00;99.90;;;;;;4995069;28;20229;-81
2023/01/27 06:26:20;;;;;;;2.00;1.50;;;2.00;99.90;;;;;;4992743;28;20225;-80
2023/01/27 06:28:47;;;;;;;3.90;1.70;;;2.00;99.90;;;;;;4998695;28;20224;-81
2023/01/27 06:31:17;;;;;;;5.47;1.83;;;2.00;99.90;;;;;;4998132;28;20224;-81
2023/01/27 06:33:44;;;;;;;4.53;1.80;;;2.10;99.90;;;;;;4995135;28;20232;-81
2023/01/27 06:36:13;;;;;;;2.40;1.70;;;2.00;99.90;;;;;;5000569;28;20238;-82
2023/01/27 06:38:40;;;;;;;2.73;1.60;;;2.10;99.90;;;;;;5000388;28;20305;-82
2023/01/27 06:41:07;;;;;;;1.87;1.50;;;2.10;99.90;;;;;;4999667;28;20230;-81
2023/01/27 06:43:34;;;;;;;2.33;1.60;;;2.10;99.90;;;;;;5000799;28;20698;-81
2023/01/27 06:46:01;;;;;;;2.60;1.57;;;2.10;99.90;;;;;;4999266;28;20248;-81
2023/01/27 06:48:31;;;;;;;4.37;1.80;;;2.10;99.90;;;;;;4993004;28;20237;-81
2023/01/27 06:51:00;;;;;;;2.80;1.40;;;2.10;99.90;;;;;;4996503;28;20709;-81
2023/01/27 06:53:26;;;;;;;13.03;2.07;;;2.10;99.90;;;;;;4993848;28;20332;-81
2023/01/27 06:55:57;;;;;;;2.27;1.53;;;2.10;99.90;;;;;;4995589;28;20228;-81
2023/01/27 06:58:26;;;;;;;5.20;1.97;;;2.10;99.90;;;;;;4995231;28;20303;-81
2023/01/27 07:00:53;;;;;;;3.63;1.60;;;2.10;99.90;;;;;;4986308;28;20574;-81
2023/01/27 07:03:20;;;;;;;2.70;2.00;;;2.00;99.90;;;;;;4991821;28;20368;-81
2023/01/27 07:05:48;;;;;;;6.47;2.50;;;2.10;99.90;;;;;;4996162;28;20229;-81
2023/01/27 07:08:15;;;;;;;4.77;2.33;;;2.10;99.90;;;;;;4996291;28;20260;-81
2023/01/27 07:10:44;;;;;;;5.60;2.30;;;2.10;99.90;;;;;;5002946;28;20225;-81
2023/01/27 07:13:13;;;;;;;4.03;2.47;;;2.10;99.90;;;;;;4999343;28;20595;-81
2023/01/27 07:15:40;;;;;;;4.47;2.07;;;2.10;99.90;;;;;;4998305;28;20218;-81
2023/01/27 07:18:07;;;;;;;4.67;2.50;;;2.10;99.90;;;;;;4999626;28;21307;-81
2023/01/27 07:20:34;;;;;;;4.27;2.53;;;2.10;99.90;;;;;;4998953;28;20221;-81
2023/01/27 07:23:03;;;;;;;13.67;2.90;;;2.10;99.90;;;;;;4989488;28;20310;-81
2023/01/27 07:25:33;;;;;;;2.47;2.20;;;2.10;99.90;;;;;;4999670;28;20369;-81
2023/01/27 07:28:02;;;;;;;3.13;2.77;;;2.10;99.90;;;;;;4999779;28;20242;-81
2023/01/27 07:30:29;;;;;;;7.00;3.00;;;2.00;99.90;;;;;;4996404;28;20225;-81
2023/01/27 07:32:56;;;;;;;3.90;2.50;;;2.00;99.90;;;;;;4994300;28;20226;-81
2023/01/27 07:35:24;;;;;;;4.03;2.10;;;2.10;99.90;;;;;;4992172;28;20220;-81
2023/01/27 07:37:51;;;;;;;2.70;2.20;;;2.00;99.90;;;;;;4993218;28;20232;-81
2023/01/27 07:40:19;;;;;;;2.33;2.13;;;2.00;99.90;;;;;;4993184;28;20222;-81
2023/01/27 07:42:48;;;;;;;7.07;2.43;;;2.00;99.90;;;;;;5006724;28;20227;-81
2023/01/27 07:45:15;;;;;;;3.37;2.40;;;2.10;99.90;;;;;;4994233;28;20217;-81
2023/01/27 07:47:42;;;;;;;4.53;2.00;;;2.00;99.90;;;;;;5009164;28;20253;-81
2023/01/27 07:50:12;;;;;;;5.27;2.27;;;2.00;99.90;;;;;;4995877;28;20267;-81
2023/01/27 07:52:39;;;;;;;3.23;1.90;;;2.10;99.90;;;;;;4989927;28;20288;-81
2023/01/27 07:55:06;;;;;;;4.30;2.00;;;2.10;99.90;;;;;;4999632;28;20808;-81
2023/01/27 07:57:34;;;;;;;4.27;2.00;;;2.10;99.90;;;;;;4999434;28;20622;-81
2023/01/27 08:00:02;;;;;;;3.80;1.70;;;2.10;99.90;;;;;;4998452;28;20238;-81
2023/01/27 08:02:38;;;;;;;5.13;1.87;;;2.20;99.90;;;;;;5006157;28;20323;-81
2023/01/27 08:05:05;;;;;;;2.90;2.03;;;2.20;99.90;;;;;;4999751;28;20280;-81
2023/01/27 08:07:32;;;;;;;3.87;2.10;;;2.20;99.90;;;;;;4999129;28;20236;-81
2023/01/27 08:09:59;;;;;;;5.47;1.90;;;2.20;99.90;;;;;;4996716;28;20218;-81
2023/01/27 08:12:26;;;;;;;2.73;1.57;;;2.30;99.90;;;;;;5012047;28;20232;-82
2023/01/27 08:14:57;;;;;;;3.63;1.97;;;2.30;99.90;;;;;;5000030;28;20218;-81
2023/01/27 08:17:27;;;;;;;3.97;1.77;;;2.30;99.90;;;;;;4976730;28;20294;-81
2023/01/27 08:19:54;;;;;;;2.63;1.43;;;2.30;99.90;;;;;;4994997;28;20229;-81
2023/01/27 08:22:25;;;;;;;3.07;1.30;;;2.30;99.90;;;;;;4997085;28;20296;-82
2023/01/27 08:24:52;;;;;;;5.70;1.73;;;2.30;99.90;;;;;;4990739;28;20569;-81
2023/01/27 08:27:18;;;;;;;5.43;1.87;;;2.30;99.90;;;;;;5008029;28;21008;-81
2023/01/27 08:29:45;;;;;;;2.23;1.50;;;2.30;99.90;;;;;;4995047;28;20231;-81
2023/01/27 08:32:13;;;;;;;2.30;1.40;;;2.30;99.90;;;;;;4996578;28;20236;-82
2023/01/27 08:34:40;;;;;;;6.33;2.33;;;2.30;99.90;;;;;;4997906;28;20405;-81
2023/01/27 08:37:07;;;;;;;3.70;1.73;;;2.30;99.90;;;;;;4994119;28;20224;-81
2023/01/27 08:39:36;;;;;;;3.60;1.70;;;2.40;99.90;;;;;;5001940;28;20255;-81
2023/01/27 08:42:03;;;;;;;4.33;1.70;;;2.30;99.90;;;;;;5006837;28;20300;-81
2023/01/27 08:44:32;;;;;;;3.83;1.73;;;2.30;99.90;;;;;;4989576;28;20252;-82
2023/01/27 08:46:58;;;;;;;4.67;1.90;;;2.30;99.90;;;;;;4995268;28;20678;-81
2023/01/27 08:49:26;;;;;;;6.80;2.10;;;2.30;99.90;;;;;;5001538;28;20338;-82
2023/01/27 08:51:53;;;;;;;3.17;2.07;;;2.40;99.90;;;;;;4997755;28;20222;-82
2023/01/27 08:54:20;;;;;;;7.07;1.90;;;2.40;99.90;;;;;;4999911;28;20329;-82
2023/01/27 08:56:46;;;;;;;4.20;2.10;;;2.40;99.90;;;;;;4997979;28;20416;-82
2023/01/27 08:59:13;;;;;;;2.53;2.13;;;2.40;99.90;;;;;;4996705;28;20480;-80
2023/01/27 09:01:41;;;;;;;4.10;1.90;;;2.50;99.90;;;;;;5001235;28;20235;-80
2023/01/27 09:04:07;;;;;;;4.27;2.10;;;2.50;99.90;;;;;;4974818;28;20640;-80
2023/01/27 09:06:35;;;;;;;4.43;2.53;;;2.50;99.90;;;;;;4989492;28;20255;-80
2023/01/27 09:09:11;;;;;;;5.57;2.00;;;2.50;99.90;;;;;;5001610;28;20314;-80
2023/01/27 09:11:39;;;;;;;5.13;2.40;;;2.60;99.90;;;;;;4996768;28;20932;-80
2023/01/27 09:14:06;;;;;;;5.33;2.10;;;2.60;99.90;;;;;;5002155;28;20312;-80
2023/01/27 09:16:34;;;;;;;4.07;2.43;;;2.60;99.90;;;;;;4995874;28;20290;-80
2023/01/27 09:19:01;;;;;;;3.23;2.33;;;2.60;99.90;;;;;;4998779;28;20228;-80
2023/01/27 09:21:30;;;;;;;3.70;2.30;;;2.60;99.90;;;;;;4998246;28;20235;-80
2023/01/27 09:23:58;;;;;;;3.13;2.10;;;2.60;99.90;;;;;;4993076;28;20226;-80
2023/01/27 09:26:25;;;;;;;5.03;2.33;;;2.60;99.90;;;;;;4989979;28;20249;-82
2023/01/27 09:28:52;;;;;;;4.93;2.30;;;2.60;99.90;;;;;;4999648;28;20244;-81
2023/01/27 09:31:19;;;;;;;4.63;1.80;;;2.60;99.90;;;;;;4996340;28;20236;-83
2023/01/27 09:33:45;;;;;;;3.30;1.80;;;2.60;99.90;;;;;;4995905;28;20253;-80
2023/01/27 09:36:16;;;;;;;3.93;2.30;;;2.50;99.90;;;;;;4996178;28;20217;-80
2023/01/27 09:38:47;;;;;;;2.97;1.90;;;2.50;99.90;;;;;;4999392;28;20229;-82
2023/01/27 09:41:55;;;;;;;3.57;1.87;;;2.50;99.90;;;;;;5004099;28;20668;-82
2023/01/27 09:44:40;;;;;;;4.10;2.93;;;2.40;99.90;;;;;;4961666;28;20670;-81
2023/01/27 09:47:29;;;;;;;2.90;1.80;;;2.40;99.90;;;;;;4994881;28;20313;-80
2023/01/27 09:50:14;;;;;;;4.07;2.10;;;2.40;99.90;;;;;;5006122;28;20272;-80
2023/01/27 09:52:56;;;;;;;2.93;1.43;;;2.40;99.90;;;;;;4994180;28;20741;-80
2023/01/27 09:55:32;;;;;;;4.97;1.80;;;2.40;99.90;;;;;;5004599;28;20236;-80
2023/01/27 09:58:10;;;;;;;4.37;1.93;;;2.40;99.90;;;;;;4999149;28;20253;-80
2023/01/27 10:00:56;;;;;;;2.07;1.30;;;2.40;99.90;;;;;;4999525;28;20244;-80
2023/01/27 10:03:42;;;;;;;3.57;1.47;;;2.50;99.90;;;;;;4993970;28;20257;-80
2023/01/27 10:06:39;;;;;;;3.17;0.83;;;2.60;99.90;;;;;;5010954;28;20230;-79
2023/01/27 10:09:40;;;;;;;2.73;0.90;;;2.50;99.90;;;;;;4976061;28;20725;-79
2023/01/27 10:12:19;;;;;;;5.03;1.10;;;2.60;99.90;;;;;;4997293;28;20310;-80
2023/01/27 10:14:56;;;;;;;1.60;0.73;;;2.70;99.90;;;;;;4982686;28;20275;-79
2023/01/27 10:17:40;;;;;;;2.90;0.80;;;2.70;99.90;;;;;;4993702;28;20609;-79
2023/01/27 10:20:23;;;;;;;2.23;0.70;;;2.80;99.90;;;;;;5000690;28;20373;-79
2023/01/27 10:22:59;;;;;;;2.60;1.17;;;2.80;99.90;;;;;;5006999;28;20310;-80
2023/01/27 10:25:40;;;;;;;1.13;1.00;;;2.80;99.90;;;;;;4986746;28;20866;-79
2023/01/27 10:28:11;;;;;;;1.33;0.73;;;2.80;99.90;;;;;;4998040;28;20792;-79
2023/01/27 10:30:43;;;;;;;2.93;1.07;;;2.70;99.90;;;;;;5002010;28;20237;-79
2023/01/27 10:33:17;;;;;;;3.67;1.17;;;2.70;99.90;;;;;;5001022;28;20230;-80
2023/01/27 10:35:51;;;;;;;2.27;0.87;;;2.70;99.90;;;;;;5000086;28;20279;-80
2023/01/27 10:38:31;;;;;;;2.43;1.10;;;2.70;99.90;;;;;;5001473;28;20228;-80
2023/01/27 10:41:06;;;;;;;4.17;1.20;;;2.70;99.90;;;;;;4993534;28;20225;-79
2023/01/27 10:43:41;;;;;;;2.33;0.97;;;2.70;99.90;;;;;;5002884;28;20230;-79
2023/01/27 10:46:16;;;;;;;2.03;0.90;;;2.80;99.90;;;;;;5002923;28;20231;-80
2023/01/27 10:48:49;;;;;;;2.53;1.20;;;2.80;99.90;;;;;;4999945;28;20628;-79
2023/01/27 10:51:21;;;;;;;2.07;0.90;;;2.80;99.90;;;;;;4995084;28;20232;-80
2023/01/27 10:53:56;;;;;;;2.77;0.80;;;2.80;99.90;;;;;;5004710;28;20301;-79
2023/01/27 10:56:30;;;;;;;3.50;0.93;;;2.80;99.90;;;;;;4997860;28;20243;-79
2023/01/27 10:59:01;;;;;;;2.47;0.80;;;2.80;99.90;;;;;;4998551;28;20234;-79
2023/01/27 11:01:32;;;;;;;3.33;0.80;;;2.80;99.90;;;;;;4992277;28;20243;-79
2023/01/27 11:04:04;;;;;;;3.30;1.40;;;2.80;99.90;;;;;;4994932;28;20740;-79
2023/01/27 11:06:38;;;;;;;2.43;1.03;;;2.80;99.90;;;;;;4997707;28;20229;-80
2023/01/27 11:09:13;;;;;;;2.93;1.20;;;2.80;99.90;;;;;;5001884;28;20229;-79
2023/01/27 11:11:48;;;;;;;3.67;0.90;;;2.80;99.90;;;;;;4996397;28;20235;-80
2023/01/27 11:14:26;;;;;;;1.87;1.07;;;2.80;99.90;;;;;;4998400;28;20221;-80
2023/01/27 11:16:58;;;;;;;13.47;8.93;;;2.80;99.90;;;;;;5000328;28;20220;-79
2023/01/27 11:19:42;;;;;;;14.63;7.63;;;2.80;99.90;;;;;;4999338;28;20679;-80
2023/01/27 11:22:19;;;;;;;2.53;1.33;;;2.80;99.90;;;;;;4998904;28;20834;-79
2023/01/27 11:24:49;;;;;;;4.23;1.40;;;2.70;99.90;;;;;;5013848;28;20231;-80
2023/01/27 11:27:30;;;;;;;2.43;1.10;;;2.70;99.90;;;;;;5000519;28;20248;-80
2023/01/27 11:30:02;;;;;;;2.50;1.30;;;2.70;99.90;;;;;;4992612;28;20234;-80
2023/01/27 11:32:40;;;;;;;6.53;1.33;;;2.70;99.90;;;;;;5003283;28;20231;-80
2023/01/27 11:35:13;;;;;;;6.10;2.40;;;2.70;99.90;;;;;;4995107;28;20221;-80
2023/01/27 11:37:42;;;;;;;2.53;1.80;;;2.70;99.90;;;;;;4996020;28;20240;-80
2023/01/27 11:40:19;;;;;;;10.90;9.93;;;2.80;99.90;;;;;;4998800;28;20222;-80
2023/01/27 11:42:48;;;;;;;3.20;1.37;;;2.80;99.90;;;;;;5000414;28;20237;-80
2023/01/27 11:45:19;;;;;;;3.33;1.07;;;2.80;99.90;;;;;;5002468;28;20229;-80
2023/01/27 11:47:49;;;;;;;5.23;1.87;;;2.90;99.90;;;;;;5004214;28;20227;-80
2023/01/27 11:50:20;;;;;;;2.40;1.07;;;2.80;99.90;;;;;;4998595;28;20726;-80
2023/01/27 11:52:50;;;;;;;3.03;1.20;;;2.80;99.90;;;;;;4998662;28;20260;-80
2023/01/27 11:55:23;;;;;;;3.30;1.20;;;2.90;99.90;;;;;;5005121;28;20229;-80
2023/01/27 11:57:55;;;;;;;4.17;1.97;;;2.80;99.90;;;;;;5000322;28;20272;-80
2023/01/27 12:00:25;;;;;;;4.93;1.37;;;2.80;99.90;;;;;;5009495;28;20249;-80
2023/01/27 12:03:00;;;;;;;2.13;1.10;;;2.90;99.90;;;;;;4974106;28;20730;-80
2023/01/27 12:05:30;;;;;;;3.27;1.60;;;2.90;99.90;;;;;;4991262;28;20225;-80
2023/01/27 12:07:59;;;;;;;4.93;2.70;;;2.90;99.90;;;;;;5003826;28;20228;-81
2023/01/27 12:10:30;;;;;;;2.43;1.20;;;2.90;99.90;;;;;;4993291;28;20221;-80
2023/01/27 12:12:58;;;;;;;3.53;1.37;;;2.90;99.90;;;;;;5009634;28;20223;-80
2023/01/27 12:15:27;;;;;;;4.17;1.10;;;2.90;99.90;;;;;;4997658;28;20229;-80
2023/01/27 12:17:57;;;;;;;3.27;0.90;;;2.90;99.90;;;;;;4992437;28;20596;-80
2023/01/27 12:20:33;;;;;;;3.77;1.07;;;3.00;99.90;;;;;;4995554;28;20242;-80
2023/01/27 12:23:06;;;;;;;1.70;0.87;;;3.00;99.90;;;;;;5013566;28;20291;-80
2023/01/27 12:25:45;;;;;;;1.93;0.70;;;3.10;99.90;;;;;;4999764;28;20236;-79
2023/01/27 12:28:28;;;;;;;2.30;0.90;;;3.20;99.90;;;;;;4998343;28;20708;-80
2023/01/27 12:31:02;;;;;;;3.73;1.03;;;3.30;99.90;;;;;;4994418;28;20765;-80
2023/01/27 12:33:31;;;;;;;3.00;0.50;;;3.30;99.90;;;;;;4999729;28;20644;-80
2023/01/27 12:36:05;;;;;;;4.20;0.93;;;3.30;99.90;;;;;;5001880;28;20280;-80
2023/01/27 12:38:36;;;;;;;4.13;1.00;;;3.30;99.90;;;;;;4996658;28;20217;-80
2023/01/27 12:41:04;;;;;;;4.23;0.80;;;3.30;99.90;;;;;;5009387;28;20253;-79
2023/01/27 12:43:49;;;;;;;1.20;0.80;;;3.30;99.90;;;;;;4991213;28;20615;-81
2023/01/27 12:46:22;;;;;;;2.77;0.93;;;3.40;99.90;;;;;;4994238;28;20223;-80
2023/01/27 12:48:51;;;;;;;4.03;1.70;;;3.40;99.90;;;;;;5001892;28;20221;-79
2023/01/27 12:51:22;;;;;;;1.40;0.70;;;3.40;99.90;;;;;;4995538;28;20229;-81
2023/01/27 12:53:49;;;;;;;3.03;1.00;;;3.40;99.90;;;;;;4999189;28;20245;-79
2023/01/27 12:56:18;;;;;;;2.87;0.80;;;3.40;99.90;;;;;;4996307;28;20234;-79
2023/01/27 12:58:47;;;;;;;1.93;0.90;;;3.40;99.90;;;;;;5002252;28;20233;-81
2023/01/27 13:01:29;;;;;;;2.63;1.00;;;3.40;99.90;;;;;;5005912;28;20218;-80
2023/01/27 13:03:59;;;;;;;2.17;0.93;;;3.20;99.90;;;;;;4993665;28;20218;-81
2023/01/27 13:06:42;;;;;;;1.80;0.80;;;3.30;99.90;;;;;;4998460;28;21099;-80
2023/01/27 13:09:25;;;;;;;3.83;0.83;;;3.20;99.90;;;;;;4997105;28;20313;-80
2023/01/27 13:11:53;;;;;;;2.13;1.00;;;3.20;99.90;;;;;;4993904;28;20248;-81
2023/01/27 13:14:20;;;;;;;2.60;0.90;;;3.10;99.90;;;;;;4998710;28;20249;-80
2023/01/27 13:16:57;;;;;;;1.30;0.90;;;3.00;99.90;;;;;;4989940;28;20221;-80
2023/01/27 13:19:37;;;;;;;1.80;0.60;;;3.00;99.90;;;;;;5003235;28;20263;-80
2023/01/27 13:22:06;;;;;;;2.07;0.50;;;2.90;99.90;;;;;;4997829;28;20232;-80
2023/01/27 13:24:36;;;;;;;1.90;0.80;;;2.90;99.90;;;;;;4995539;28;20362;-81
2023/01/27 13:27:11;;;;;;;2.03;0.60;;;2.90;99.90;;;;;;4993819;28;20230;-80
2023/01/27 13:29:40;;;;;;;1.93;1.07;;;2.80;99.90;;;;;;5000780;28;20229;-79
2023/01/27 13:32:18;;;;;;;2.47;0.80;;;2.80;99.90;;;;;;4997691;28;20294;-79
2023/01/27 13:34:48;;;;;;;2.70;1.93;;;2.80;99.90;;;;;;5002844;28;20225;-80
2023/01/27 13:37:19;;;;;;;1.13;0.70;;;2.90;99.90;;;;;;5018327;28;20228;-79
2023/01/27 13:40:03;;;;;;;2.50;0.60;;;2.90;99.90;;;;;;5008045;28;20231;-79
2023/01/27 13:42:38;;;;;;;2.40;0.83;;;2.80;99.90;;;;;;4983884;28;20232;-79